Time;durP1;ratioP1;P1;durP2;ratioP2;P2;SDS_P1;SDS_P2;PMS_P1;PMS_P2;Temp;Humidity;BMP_temperature;BMP_pressure;BME280_temperature;BME280_humidity;BME280_pressure;Samples;Min_cycle;Max_cycle;Signal;HPM_P1;HPM_P2
2023/02/05 00:00:41;;;;;;;8.63;7.28;;;;;;;;;;4228096;28;20070;-86
2023/02/05 00:03:01;;;;;;;4.43;3.95;;;;;;;;;;4226744;28;20051;-85
2023/02/05 00:05:21;;;;;;;5.35;5.25;;;;;;;;;;4208888;28;20126;-85
2023/02/05 00:07:41;;;;;;;6.45;6.05;;;;;;;;;;4212916;28;20048;-85
2023/02/05 00:10:02;;;;;;;6.35;5.85;;;;;;;;;;4216950;28;20086;-86
2023/02/05 00:12:22;;;;;;;4.53;4.43;;;;;;;;;;4225475;28;20389;-85
2023/02/05 00:14:42;;;;;;;5.35;5.10;;;;;;;;;;4228294;28;20071;-85
2023/02/05 00:17:02;;;;;;;5.38;5.07;;;;;;;;;;4212817;28;20292;-85
2023/02/05 00:19:23;;;;;;;5.28;5.10;;;;;;;;;;4224094;28;20035;-85
2023/02/05 00:21:43;;;;;;;4.40;4.10;;;;;;;;;;4230326;28;20046;-85
2023/02/05 00:24:03;;;;;;;5.32;5.22;;;;;;;;;;4218689;28;20081;-85
2023/02/05 00:26:23;;;;;;;4.65;4.65;;;;;;;;;;4214001;28;20100;-85
2023/02/05 00:28:43;;;;;;;5.25;4.93;;;;;;;;;;4217344;28;20299;-85
2023/02/05 00:31:09;;;;;;;5.93;5.60;;;;;;;;;;4215882;28;20115;-85
2023/02/05 00:33:29;;;;;;;5.32;5.18;;;;;;;;;;4227921;28;20035;-85
2023/02/05 00:35:50;;;;;;;6.15;5.50;;;;;;;;;;4222707;28;20051;-86
2023/02/05 00:38:09;;;;;;;5.10;5.00;;;;;;;;;;4213733;28;20059;-85
2023/02/05 00:40:30;;;;;;;4.60;4.43;;;;;;;;;;4217060;28;20077;-85
2023/02/05 00:42:50;;;;;;;5.03;4.80;;;;;;;;;;4213854;28;20051;-85
2023/02/05 00:45:10;;;;;;;5.25;4.85;;;;;;;;;;4231509;28;20354;-85
2023/02/05 00:47:30;;;;;;;5.93;5.57;;;;;;;;;;4218819;28;20062;-85
2023/02/05 00:49:50;;;;;;;5.38;4.93;;;;;;;;;;4230976;28;20090;-85
2023/02/05 00:52:11;;;;;;;5.68;5.45;;;;;;;;;;4232427;28;20062;-85
2023/02/05 00:54:31;;;;;;;5.47;5.15;;;;;;;;;;4232324;28;20366;-85
2023/02/05 00:56:51;;;;;;;5.93;5.18;;;;;;;;;;4231685;28;20047;-85
2023/02/05 00:59:11;;;;;;;4.78;4.47;;;;;;;;;;4220501;28;20039;-85
2023/02/05 01:01:32;;;;;;;6.57;6.38;;;;;;;;;;4214017;28;20047;-84
2023/02/05 01:03:52;;;;;;;6.47;6.13;;;;;;;;;;4213615;28;20075;-85
2023/02/05 01:06:12;;;;;;;5.78;5.68;;;;;;;;;;4218044;28;20051;-85
2023/02/05 01:08:32;;;;;;;8.63;7.82;;;;;;;;;;4231171;28;20051;-85
2023/02/05 01:10:55;;;;;;;6.05;5.80;;;;;;;;;;4228263;28;20294;-86
2023/02/05 01:13:16;;;;;;;6.97;6.68;;;;;;;;;;4226404;28;20077;-85
2023/02/05 01:15:38;;;;;;;7.68;7.00;;;;;;;;;;4231253;28;20058;-85
2023/02/05 01:17:59;;;;;;;5.43;5.30;;;;;;;;;;4218728;28;20050;-86
2023/02/05 01:20:20;;;;;;;6.53;6.32;;;;;;;;;;4218270;28;20054;-85
2023/02/05 01:22:41;;;;;;;7.20;6.88;;;;;;;;;;4218469;28;20044;-85
2023/02/05 01:25:02;;;;;;;9.65;9.15;;;;;;;;;;4215189;28;20069;-85
2023/02/05 01:27:23;;;;;;;8.52;7.97;;;;;;;;;;4217994;28;20161;-85
2023/02/05 01:29:43;;;;;;;9.32;8.82;;;;;;;;;;4218346;28;20062;-85
2023/02/05 01:32:03;;;;;;;9.45;8.60;;;;;;;;;;4233371;28;20096;-85
2023/02/05 01:34:23;;;;;;;8.38;7.70;;;;;;;;;;4227197;28;20043;-85
2023/02/05 01:36:43;;;;;;;7.80;7.35;;;;;;;;;;4232481;28;20276;-85
2023/02/05 01:39:03;;;;;;;7.20;6.90;;;;;;;;;;4230116;28;20059;-85
2023/02/05 01:41:24;;;;;;;9.00;8.60;;;;;;;;;;4215017;28;20083;-85
2023/02/05 01:44:04;;;;;;;8.88;8.30;;;;;;;;;;4211293;28;20074;-85
2023/02/05 01:46:25;;;;;;;7.20;7.10;;;;;;;;;;4215480;28;20382;-85
2023/02/05 01:48:48;;;;;;;7.40;7.07;;;;;;;;;;4229791;28;20043;-85
2023/02/05 01:51:10;;;;;;;7.60;6.87;;;;;;;;;;4212606;28;20362;-85
2023/02/05 01:53:32;;;;;;;9.73;9.13;;;;;;;;;;4211996;28;20051;-85
2023/02/05 01:55:57;;;;;;;9.45;8.57;;;;;;;;;;4226340;28;20051;-85
2023/02/05 01:58:17;;;;;;;9.68;8.73;;;;;;;;;;4214102;28;20089;-85
2023/02/05 02:00:37;;;;;;;9.60;9.10;;;;;;;;;;4218227;28;20063;-84
2023/02/05 02:02:58;;;;;;;8.40;7.95;;;;;;;;;;4215167;28;20075;-85
2023/02/05 02:05:18;;;;;;;8.75;8.07;;;;;;;;;;4215158;28;20070;-85
2023/02/05 02:07:39;;;;;;;7.93;7.60;;;;;;;;;;4230705;28;20075;-85
2023/02/05 02:10:00;;;;;;;10.65;9.60;;;;;;;;;;4215533;28;20105;-85
2023/02/05 02:12:26;;;;;;;8.30;7.80;;;;;;;;;;4229162;28;20121;-85
2023/02/05 02:14:48;;;;;;;9.75;9.00;;;;;;;;;;4210665;28;20070;-85
2023/02/05 02:17:09;;;;;;;9.50;9.00;;;;;;;;;;4216644;28;20409;-84
2023/02/05 02:19:39;;;;;;;8.63;8.15;;;;;;;;;;4233414;28;20050;-85
2023/02/05 02:22:09;;;;;;;8.77;8.10;;;;;;;;;;4215671;28;20051;-85
2023/02/05 02:24:49;;;;;;;9.23;8.82;;;;;;;;;;4228918;28;20066;-84
2023/02/05 02:27:10;;;;;;;9.55;9.18;;;;;;;;;;4190306;28;20047;-84
2023/02/05 02:29:30;;;;;;;8.88;8.48;;;;;;;;;;4212502;28;20099;-84
2023/02/05 02:31:55;;;;;;;10.65;10.05;;;;;;;;;;4218567;28;20085;-85
2023/02/05 02:34:24;;;;;;;10.77;10.57;;;;;;;;;;4228587;28;20046;-85
2023/02/05 02:36:50;;;;;;;10.88;10.25;;;;;;;;;;4231903;28;20043;-85
2023/02/05 02:39:16;;;;;;;11.68;11.18;;;;;;;;;;4229932;28;20092;-85
2023/02/05 02:41:42;;;;;;;14.77;13.95;;;;;;;;;;4229416;28;20097;-85
2023/02/05 02:44:12;;;;;;;14.75;13.57;;;;;;;;;;4231284;28;20065;-85
2023/02/05 02:46:35;;;;;;;16.02;15.30;;;;;;;;;;4234920;28;20046;-84
2023/02/05 02:48:57;;;;;;;12.80;12.02;;;;;;;;;;4224562;28;20374;-85
2023/02/05 02:51:20;;;;;;;11.27;10.52;;;;;;;;;;4229072;28;20115;-84
2023/02/05 02:53:42;;;;;;;9.75;9.55;;;;;;;;;;4234887;28;20046;-85
2023/02/05 02:56:03;;;;;;;10.20;9.70;;;;;;;;;;4213489;28;20295;-84
2023/02/05 02:58:27;;;;;;;7.95;7.60;;;;;;;;;;4214024;28;20048;-85
2023/02/05 03:00:48;;;;;;;11.13;10.45;;;;;;;;;;4229357;28;20042;-85
2023/02/05 03:03:10;;;;;;;10.32;9.45;;;;;;;;;;4226544;28;20077;-84
2023/02/05 03:05:31;;;;;;;11.10;10.60;;;;;;;;;;4226142;28;20239;-84
2023/02/05 03:07:54;;;;;;;11.88;11.25;;;;;;;;;;4229070;28;20046;-84
2023/02/05 03:10:23;;;;;;;9.07;8.77;;;;;;;;;;4238142;28;20113;-84
2023/02/05 03:12:43;;;;;;;9.32;8.82;;;;;;;;;;4220074;28;20043;-85
2023/02/05 03:15:04;;;;;;;10.80;10.30;;;;;;;;;;4216565;28;20261;-85
2023/02/05 03:17:25;;;;;;;12.07;11.68;;;;;;;;;;4233843;28;20088;-85
2023/02/05 03:19:48;;;;;;;11.07;10.48;;;;;;;;;;4227673;28;20047;-85
2023/02/05 03:22:08;;;;;;;13.10;12.50;;;;;;;;;;4229902;28;20254;-85
2023/02/05 03:24:30;;;;;;;10.85;10.55;;;;;;;;;;4227209;28;20062;-85
2023/02/05 03:26:50;;;;;;;12.05;11.55;;;;;;;;;;4230591;28;20055;-85
2023/02/05 03:29:13;;;;;;;10.75;10.32;;;;;;;;;;4229920;28;20373;-85
2023/02/05 03:31:57;;;;;;;9.57;9.20;;;;;;;;;;4228397;28;20051;-85
2023/02/05 03:34:32;;;;;;;9.63;9.32;;;;;;;;;;4224530;28;20051;-86
2023/02/05 03:37:11;;;;;;;12.80;12.25;;;;;;;;;;4215339;28;20052;-84
2023/02/05 03:39:51;;;;;;;12.65;12.07;;;;;;;;;;4226341;28;20330;-84
2023/02/05 03:42:11;;;;;;;11.18;10.57;;;;;;;;;;4228277;28;20073;-85
2023/02/05 03:44:50;;;;;;;15.85;15.35;;;;;;;;;;4229299;28;20081;-85
2023/02/05 03:47:30;;;;;;;27.17;26.23;;;;;;;;;;4225771;28;20042;-85
2023/02/05 03:49:51;;;;;;;25.85;25.02;;;;;;;;;;4230621;28;20134;-84
2023/02/05 03:52:19;;;;;;;34.50;32.65;;;;;;;;;;4231381;28;20141;-84
2023/02/05 03:54:39;;;;;;;34.47;32.75;;;;;;;;;;4225356;28;20042;-84
2023/02/05 03:57:05;;;;;;;37.90;36.13;;;;;;;;;;4224365;28;20103;-84
2023/02/05 03:59:25;;;;;;;34.10;32.45;;;;;;;;;;4231005;28;20262;-84
2023/02/05 04:01:46;;;;;;;35.75;34.13;;;;;;;;;;4231522;28;20046;-84
2023/02/05 04:04:06;;;;;;;31.77;30.65;;;;;;;;;;4231336;28;20051;-85
2023/02/05 04:06:26;;;;;;;33.20;31.98;;;;;;;;;;4229262;28;20089;-84
2023/02/05 04:08:46;;;;;;;31.55;30.40;;;;;;;;;;4231768;28;20258;-85
2023/02/05 04:11:08;;;;;;;28.02;26.92;;;;;;;;;;4230870;28;20047;-84
2023/02/05 04:13:28;;;;;;;28.40;27.40;;;;;;;;;;4231188;28;20035;-85
2023/02/05 04:15:49;;;;;;;30.73;29.40;;;;;;;;;;4231017;28;20050;-85
2023/02/05 04:18:10;;;;;;;28.48;27.27;;;;;;;;;;4232178;28;20088;-84
2023/02/05 04:20:30;;;;;;;22.55;20.92;;;;;;;;;;4228477;28;20290;-84
2023/02/05 04:22:50;;;;;;;14.23;13.27;;;;;;;;;;4231186;28;20083;-84
2023/02/05 04:25:10;;;;;;;23.30;22.00;;;;;;;;;;4230545;28;20362;-84
2023/02/05 04:27:30;;;;;;;21.35;20.75;;;;;;;;;;4231426;28;20085;-84
2023/02/05 04:29:50;;;;;;;26.35;25.13;;;;;;;;;;4228642;28;20270;-84
2023/02/05 04:32:11;;;;;;;29.30;27.83;;;;;;;;;;4234958;28;20047;-84
2023/02/05 04:34:31;;;;;;;31.40;30.27;;;;;;;;;;4233343;28;20101;-84
2023/02/05 04:36:51;;;;;;;33.10;31.83;;;;;;;;;;4226864;28;20051;-86
2023/02/05 04:39:11;;;;;;;34.83;32.92;;;;;;;;;;4228517;28;20078;-84
2023/02/05 04:41:31;;;;;;;36.13;34.65;;;;;;;;;;4233716;28;20047;-85
2023/02/05 04:43:52;;;;;;;36.92;35.50;;;;;;;;;;4231548;28;20328;-84
2023/02/05 04:46:12;;;;;;;37.80;35.97;;;;;;;;;;4232295;28;20050;-85
2023/02/05 04:48:32;;;;;;;39.17;37.20;;;;;;;;;;4230278;28;20050;-84
2023/02/05 04:50:53;;;;;;;44.88;42.67;;;;;;;;;;4226405;28;20074;-84
2023/02/05 04:53:13;;;;;;;38.25;36.83;;;;;;;;;;4226655;28;20062;-84
2023/02/05 04:55:34;;;;;;;37.08;35.97;;;;;;;;;;4231188;28;20078;-84
2023/02/05 04:57:54;;;;;;;39.03;37.08;;;;;;;;;;4231254;28;20137;-84
2023/02/05 05:00:15;;;;;;;41.72;39.53;;;;;;;;;;4232847;28;20126;-85
2023/02/05 05:02:35;;;;;;;38.25;36.50;;;;;;;;;;4233446;28;20047;-84
2023/02/05 05:04:56;;;;;;;39.33;37.50;;;;;;;;;;4227230;28;20086;-84
2023/02/05 05:07:16;;;;;;;38.42;36.70;;;;;;;;;;4232044;28;20239;-84
2023/02/05 05:09:37;;;;;;;38.00;36.42;;;;;;;;;;4228613;28;20389;-84
2023/02/05 05:11:57;;;;;;;39.15;37.58;;;;;;;;;;4228998;28;20440;-84
2023/02/05 05:14:17;;;;;;;36.92;35.05;;;;;;;;;;4234090;28;20035;-84
2023/02/05 05:16:38;;;;;;;34.95;33.72;;;;;;;;;;4231556;28;20443;-84
2023/02/05 05:18:58;;;;;;;37.80;35.83;;;;;;;;;;4228617;28;20235;-84
2023/02/05 05:21:18;;;;;;;37.50;36.20;;;;;;;;;;4230791;28;20110;-84
2023/02/05 05:23:38;;;;;;;43.00;40.92;;;;;;;;;;4226436;28;20039;-84
2023/02/05 05:25:58;;;;;;;37.72;36.53;;;;;;;;;;4228215;28;20154;-84
2023/02/05 05:28:18;;;;;;;35.55;34.13;;;;;;;;;;4232401;28;20076;-84
2023/02/05 05:30:39;;;;;;;38.50;37.22;;;;;;;;;;4231794;28;20080;-85
2023/02/05 05:33:00;;;;;;;35.67;34.40;;;;;;;;;;4232889;28;20377;-84
2023/02/05 05:35:20;;;;;;;36.65;34.95;;;;;;;;;;4231986;28;20405;-84
2023/02/05 05:37:40;;;;;;;32.88;31.45;;;;;;;;;;4230785;28;20081;-84
2023/02/05 05:45:18;;;;;;;34.42;33.50;;;;;;;;;;4226629;28;20333;-84
2023/02/05 05:47:38;;;;;;;32.40;31.40;;;;;;;;;;4226286;28;20055;-85
2023/02/05 05:49:59;;;;;;;35.83;34.60;;;;;;;;;;4229205;28;20417;-84
2023/02/05 05:52:19;;;;;;;36.10;34.92;;;;;;;;;;4233287;28;20115;-84
2023/02/05 05:54:40;;;;;;;38.15;36.67;;;;;;;;;;4228746;28;20075;-84
2023/02/05 05:57:00;;;;;;;33.65;32.55;;;;;;;;;;4229564;28;20047;-84
2023/02/05 05:59:20;;;;;;;34.22;32.75;;;;;;;;;;4231644;28;20077;-84
2023/02/05 06:01:40;;;;;;;30.60;29.45;;;;;;;;;;4230850;28;20055;-84
2023/02/05 06:04:00;;;;;;;41.28;38.90;;;;;;;;;;4231320;28;20273;-84
2023/02/05 06:06:23;;;;;;;;;;;;;;;;;;4229492;28;20047;-84
2023/02/05 06:08:44;;;;;;;42.65;40.67;;;;;;;;;;4231020;28;19930;-84
2023/02/05 06:11:05;;;;;;;42.92;41.08;;;;;;;;;;4228422;28;20385;-84
2023/02/05 06:13:26;;;;;;;41.90;40.15;;;;;;;;;;4230140;28;20034;-85
2023/02/05 06:15:47;;;;;;;41.30;39.75;;;;;;;;;;4230402;28;20055;-85
2023/02/05 06:18:07;;;;;;;45.47;43.20;;;;;;;;;;4230082;28;20070;-85
2023/02/05 06:20:28;;;;;;;43.60;41.85;;;;;;;;;;4226069;28;20366;-84
2023/02/05 06:22:48;;;;;;;41.53;39.72;;;;;;;;;;4231878;28;20328;-84
2023/02/05 06:25:09;;;;;;;45.45;43.50;;;;;;;;;;4231863;28;20047;-84
2023/02/05 06:27:29;;;;;;;42.33;40.53;;;;;;;;;;4229051;28;20086;-84
2023/02/05 06:29:49;;;;;;;42.88;40.47;;;;;;;;;;4225195;28;20106;-84
2023/02/05 06:32:09;;;;;;;41.15;39.40;;;;;;;;;;4231219;28;20149;-84
2023/02/05 06:34:29;;;;;;;43.70;42.13;;;;;;;;;;4228142;28;20088;-84
2023/02/05 06:36:50;;;;;;;36.05;34.75;;;;;;;;;;4231643;28;20271;-84
2023/02/05 06:39:10;;;;;;;40.15;38.80;;;;;;;;;;4226242;28;20046;-84
2023/02/05 06:41:30;;;;;;;40.67;39.35;;;;;;;;;;4232038;28;20088;-84
2023/02/05 06:43:51;;;;;;;40.03;38.78;;;;;;;;;;4230282;28;20077;-84
2023/02/05 06:46:11;;;;;;;43.88;41.20;;;;;;;;;;4229652;28;20051;-84
2023/02/05 06:48:31;;;;;;;38.28;36.97;;;;;;;;;;4227310;28;20073;-84
2023/02/05 06:50:52;;;;;;;40.45;38.88;;;;;;;;;;4228839;28;20247;-84
2023/02/05 06:53:12;;;;;;;38.63;36.97;;;;;;;;;;4226768;28;20107;-84
2023/02/05 06:55:33;;;;;;;37.92;36.92;;;;;;;;;;4225835;28;20085;-85
2023/02/05 06:57:53;;;;;;;43.03;41.22;;;;;;;;;;4227026;28;20081;-85
2023/02/05 07:00:14;;;;;;;42.65;40.78;;;;;;;;;;4228134;28;20084;-84
2023/02/05 07:02:34;;;;;;;44.28;42.33;;;;;;;;;;4227873;28;20080;-84
2023/02/05 07:04:54;;;;;;;40.28;38.63;;;;;;;;;;4228522;28;20358;-84
2023/02/05 07:07:16;;;;;;;36.50;34.75;;;;;;;;;;4228431;28;20066;-84
2023/02/05 07:09:36;;;;;;;39.00;37.40;;;;;;;;;;4221713;28;20051;-84
2023/02/05 07:11:56;;;;;;;42.33;40.20;;;;;;;;;;4231063;28;20282;-84
2023/02/05 07:14:16;;;;;;;41.10;39.15;;;;;;;;;;4233130;28;20107;-85
2023/02/05 07:16:36;;;;;;;41.65;39.88;;;;;;;;;;4232572;28;20089;-84
2023/02/05 07:18:57;;;;;;;40.72;38.78;;;;;;;;;;4229543;28;20047;-84
2023/02/05 07:21:17;;;;;;;36.90;35.45;;;;;;;;;;4230249;28;20348;-84
2023/02/05 07:23:37;;;;;;;39.22;37.60;;;;;;;;;;4225398;28;20034;-84
2023/02/05 07:25:57;;;;;;;37.40;35.45;;;;;;;;;;4229256;28;20444;-84
2023/02/05 07:28:18;;;;;;;41.38;39.95;;;;;;;;;;4230325;28;20089;-85
2023/02/05 07:30:38;;;;;;;38.65;37.17;;;;;;;;;;4228333;28;20050;-84
2023/02/05 07:33:00;;;;;;;36.85;35.28;;;;;;;;;;4229731;28;20105;-84
2023/02/05 07:35:20;;;;;;;38.35;37.10;;;;;;;;;;4231062;28;20081;-84
2023/02/05 07:37:40;;;;;;;40.60;39.10;;;;;;;;;;4224883;28;20043;-84
2023/02/05 07:40:01;;;;;;;41.00;39.42;;;;;;;;;;4228158;28;20255;-84
2023/02/05 07:42:21;;;;;;;38.95;37.75;;;;;;;;;;4231972;28;20285;-84
2023/02/05 07:44:42;;;;;;;37.25;36.08;;;;;;;;;;4230150;28;20039;-84
2023/02/05 07:47:02;;;;;;;37.67;36.35;;;;;;;;;;4228785;28;20067;-84
2023/02/05 07:49:22;;;;;;;40.03;38.33;;;;;;;;;;4230514;28;20050;-84
2023/02/05 07:51:42;;;;;;;41.78;39.88;;;;;;;;;;4231280;28;20424;-84
2023/02/05 07:54:06;;;;;;;47.95;45.40;;;;;;;;;;4231468;28;20081;-84
2023/02/05 07:56:26;;;;;;;45.58;43.38;;;;;;;;;;4234329;28;20079;-84
2023/02/05 07:58:47;;;;;;;39.85;38.40;;;;;;;;;;4234953;28;20034;-84
2023/02/05 08:01:08;;;;;;;40.25;38.78;;;;;;;;;;4230696;28;20051;-84
2023/02/05 08:03:28;;;;;;;36.10;34.70;;;;;;;;;;4226531;28;20050;-84
2023/02/05 08:05:48;;;;;;;33.22;30.95;;;;;;;;;;4232398;28;20231;-84
2023/02/05 08:08:09;;;;;;;35.78;33.38;;;;;;;;;;4232653;28;20064;-84
2023/02/05 08:10:29;;;;;;;39.55;36.85;;;;;;;;;;4233482;28;20084;-84
2023/02/05 08:12:50;;;;;;;30.73;28.73;;;;;;;;;;4233620;28;20050;-84
2023/02/05 08:15:10;;;;;;;26.33;25.40;;;;;;;;;;4234207;28;20067;-84
2023/02/05 08:17:30;;;;;;;19.60;18.45;;;;;;;;;;4234798;28;20113;-84
2023/02/05 08:19:50;;;;;;;19.95;19.15;;;;;;;;;;4231084;28;20082;-84
2023/02/05 08:22:11;;;;;;;31.17;29.75;;;;;;;;;;4234401;28;20051;-85
2023/02/05 08:24:31;;;;;;;40.55;37.22;;;;;;;;;;4226805;28;20058;-84
2023/02/05 08:26:52;;;;;;;35.10;32.53;;;;;;;;;;4234767;28;20134;-84
2023/02/05 08:29:12;;;;;;;68.82;46.60;;;;;;;;;;4233870;28;20043;-84
2023/02/05 08:31:32;;;;;;;53.80;38.75;;;;;;;;;;4231599;28;20251;-85
2023/02/05 08:33:55;;;;;;;16.10;15.13;;;;;;;;;;4227203;28;20089;-84
2023/02/05 08:36:15;;;;;;;16.05;15.23;;;;;;;;;;4232174;28;20070;-85
2023/02/05 08:38:35;;;;;;;15.43;14.60;;;;;;;;;;4234436;28;20312;-85
2023/02/05 08:40:56;;;;;;;17.00;15.90;;;;;;;;;;4228187;28;20050;-85
2023/02/05 08:43:17;;;;;;;10.52;10.32;;;;;;;;;;4226018;28;20122;-85
2023/02/05 08:45:37;;;;;;;16.00;15.13;;;;;;;;;;4231135;28;20059;-84
2023/02/05 08:47:58;;;;;;;10.00;9.70;;;;;;;;;;4229972;28;20104;-84
2023/02/05 08:50:18;;;;;;;9.20;9.00;;;;;;;;;;4212352;28;20417;-84
2023/02/05 08:52:39;;;;;;;11.63;11.27;;;;;;;;;;4229916;28;20050;-84
2023/02/05 08:55:00;;;;;;;12.18;11.07;;;;;;;;;;4227124;28;20051;-85
2023/02/05 08:57:20;;;;;;;11.43;10.80;;;;;;;;;;4229963;28;20055;-84
2023/02/05 08:59:40;;;;;;;12.30;11.73;;;;;;;;;;4235094;28;20358;-85
2023/02/05 09:02:02;;;;;;;7.00;6.70;;;;;;;;;;4227860;28;20381;-84
2023/02/05 09:04:22;;;;;;;8.48;8.27;;;;;;;;;;4218900;28;20059;-85
2023/02/05 09:06:43;;;;;;;8.85;8.45;;;;;;;;;;4212636;28;20085;-84
2023/02/05 09:09:03;;;;;;;9.07;8.88;;;;;;;;;;4234512;28;20076;-85
2023/02/05 09:11:25;;;;;;;10.90;10.23;;;;;;;;;;4216507;28;20071;-84
2023/02/05 09:13:46;;;;;;;14.93;13.82;;;;;;;;;;4229761;28;20290;-84
2023/02/05 09:16:09;;;;;;;19.05;16.10;;;;;;;;;;4228357;28;20055;-87
2023/02/05 09:18:29;;;;;;;19.35;17.88;;;;;;;;;;4233271;28;20050;-87
2023/02/05 09:20:50;;;;;;;14.88;13.85;;;;;;;;;;4231160;28;20043;-87
2023/02/05 09:23:11;;;;;;;14.77;13.63;;;;;;;;;;4227525;28;20050;-86
2023/02/05 09:25:32;;;;;;;9.57;8.27;;;;;;;;;;4232629;28;20103;-87
2023/02/05 09:27:53;;;;;;;18.52;17.05;;;;;;;;;;4231849;28;20093;-87
2023/02/05 09:30:13;;;;;;;8.43;7.75;;;;;;;;;;4227940;28;20089;-87
2023/02/05 09:32:34;;;;;;;6.05;5.20;;;;;;;;;;4233535;28;20377;-87
2023/02/05 09:34:54;;;;;;;11.15;10.45;;;;;;;;;;4234860;28;20074;-87
2023/02/05 09:37:14;;;;;;;9.20;8.50;;;;;;;;;;4231412;28;20051;-87
2023/02/05 09:39:34;;;;;;;7.30;6.85;;;;;;;;;;4225806;28;20062;-87
2023/02/05 09:42:29;;;;;;;5.60;4.38;;;;;;;;;;4217397;28;20261;-86
2023/02/05 09:45:19;;;;;;;5.20;4.85;;;;;;;;;;4218031;28;20358;-86
2023/02/05 09:47:53;;;;;;;5.30;5.20;;;;;;;;;;4159598;28;20127;-86
2023/02/05 09:50:14;;;;;;;;;;;;;;;;;;4232310;28;20366;-85
2023/02/05 09:52:38;;;;;;;5.35;4.78;;;;;;;;;;4225545;28;19956;-85
2023/02/05 09:55:04;;;;;;;4.70;4.38;;;;;;;;;;4213447;28;20259;-85
2023/02/05 09:57:30;;;;;;;12.23;7.38;;;;;;;;;;4217414;28;20056;-86
2023/02/05 09:59:50;;;;;;;5.82;5.35;;;;;;;;;;4218603;28;20046;-86
2023/02/05 10:02:29;;;;;;;5.43;5.22;;;;;;;;;;4213411;28;20051;-86
2023/02/05 10:04:53;;;;;;;3.92;3.83;;;;;;;;;;4215792;28;20082;-86
2023/02/05 10:07:13;;;;;;;5.07;4.75;;;;;;;;;;4214544;28;20099;-86
2023/02/05 10:09:37;;;;;;;4.40;4.10;;;;;;;;;;4213908;28;20059;-86
2023/02/05 10:11:57;;;;;;;4.57;4.22;;;;;;;;;;4232404;28;20269;-87
2023/02/05 10:14:25;;;;;;;4.10;4.00;;;;;;;;;;4214565;28;20090;-86
2023/02/05 10:16:56;;;;;;;4.25;4.15;;;;;;;;;;4213845;28;20047;-86
2023/02/05 10:19:23;;;;;;;4.68;4.47;;;;;;;;;;4215121;28;20236;-86
2023/02/05 10:21:49;;;;;;;6.03;5.68;;;;;;;;;;4214248;28;20062;-86
2023/02/05 10:24:24;;;;;;;4.38;4.28;;;;;;;;;;4226308;28;20139;-85
2023/02/05 10:26:49;;;;;;;4.65;4.45;;;;;;;;;;4215753;28;20047;-85
2023/02/05 10:29:21;;;;;;;4.78;4.47;;;;;;;;;;4215948;28;20142;-85
2023/02/05 10:32:06;;;;;;;4.00;3.70;;;;;;;;;;4228743;28;20145;-86
2023/02/05 10:34:45;;;;;;;3.80;3.45;;;;;;;;;;4212349;28;20048;-85
2023/02/05 10:37:11;;;;;;;4.65;4.43;;;;;;;;;;4230820;28;20055;-85
2023/02/05 10:39:32;;;;;;;3.45;3.35;;;;;;;;;;4232917;28;20073;-85
2023/02/05 10:41:56;;;;;;;4.05;3.85;;;;;;;;;;4213547;28;20066;-85
2023/02/05 10:44:30;;;;;;;4.68;4.03;;;;;;;;;;4212846;28;20394;-86
2023/02/05 10:46:54;;;;;;;3.85;3.50;;;;;;;;;;4212718;28;20362;-85
2023/02/05 10:49:17;;;;;;;16.65;6.22;;;;;;;;;;4213832;28;20059;-85
2023/02/05 11:05:01;;;;;;;5.60;3.97;;;;;;;;;;4228356;28;20082;-87
2023/02/05 11:07:26;;;;;;;4.90;4.78;;;;;;;;;;4215304;28;20070;-87
2023/02/05 11:09:47;;;;;;;5.10;4.53;;;;;;;;;;4213412;28;20135;-86
2023/02/05 11:12:27;;;;;;;4.70;4.57;;;;;;;;;;4228804;28;20076;-86
2023/02/05 11:14:54;;;;;;;4.63;4.35;;;;;;;;;;4215313;28;20103;-86
2023/02/05 11:17:20;;;;;;;3.60;3.40;;;;;;;;;;4214955;28;20063;-86
2023/02/05 11:19:40;;;;;;;5.00;4.55;;;;;;;;;;4212646;28;20281;-86
2023/02/05 11:22:02;;;;;;;4.57;4.13;;;;;;;;;;4228757;28;20085;-86
2023/02/05 11:24:24;;;;;;;6.50;4.85;;;;;;;;;;4233986;28;20043;-86
2023/02/05 11:26:44;;;;;;;5.03;4.57;;;;;;;;;;4216356;28;20056;-86
2023/02/05 11:39:29;;;;;;;6.22;5.60;;;;;;;;;;4230138;28;20049;-86
2023/02/05 11:41:55;;;;;;;4.60;4.40;;;;;;;;;;4215629;28;20044;-87
2023/02/05 11:44:31;;;;;;;13.10;7.75;;;;;;;;;;4211340;28;20087;-86
2023/02/05 11:47:27;;;;;;;5.57;5.22;;;;;;;;;;4197480;28;20036;-87
2023/02/05 11:49:50;;;;;;;4.05;3.05;;;;;;;;;;4213181;28;20259;-86
2023/02/05 11:59:05;;;;;;;4.25;4.03;;;;;;;;;;4230150;28;20092;-86
2023/02/05 12:01:31;;;;;;;3.58;3.47;;;;;;;;;;4209310;28;20075;-85
2023/02/05 12:04:02;;;;;;;4.35;4.25;;;;;;;;;;4230385;28;20227;-86
2023/02/05 12:06:27;;;;;;;3.80;3.70;;;;;;;;;;4226428;28;20129;-89
2023/02/05 12:08:49;;;;;;;3.97;3.78;;;;;;;;;;4215489;28;20152;-89
2023/02/05 12:11:30;;;;;;;3.75;3.65;;;;;;;;;;4212376;28;20168;-89
2023/02/05 12:14:14;;;;;;;3.78;3.63;;;;;;;;;;4214008;28;20256;-89
2023/02/05 12:16:36;;;;;;;3.60;3.40;;;;;;;;;;4216125;28;20125;-89
2023/02/05 12:18:57;;;;;;;3.15;3.08;;;;;;;;;;4219953;28;20135;-90
2023/02/05 12:21:29;;;;;;;3.67;3.58;;;;;;;;;;4208277;28;20047;-89
2023/02/05 12:23:49;;;;;;;3.55;3.22;;;;;;;;;;4212053;28;20063;-89
2023/02/05 12:26:18;;;;;;;3.55;3.47;;;;;;;;;;4229222;28;20046;-90
2023/02/05 12:28:45;;;;;;;5.28;4.60;;;;;;;;;;4214676;28;20047;-90
2023/02/05 12:31:24;;;;;;;4.88;4.57;;;;;;;;;;4232050;28;20142;-90
2023/02/05 12:37:35;;;;;;;2.92;2.88;;;;;;;;;;4229562;28;20039;-90
2023/02/05 12:40:16;;;;;;;4.05;3.90;;;;;;;;;;4233631;28;20055;-90
2023/02/05 12:42:39;;;;;;;3.80;3.70;;;;;;;;;;4197034;28;20055;-89
2023/02/05 12:45:19;;;;;;;4.30;4.00;;;;;;;;;;4233810;28;20050;-90
2023/02/05 12:47:52;;;;;;;3.22;3.22;;;;;;;;;;4228509;28;20239;-90
2023/02/05 12:50:33;;;;;;;3.38;3.22;;;;;;;;;;4216028;28;20047;-90
2023/02/05 12:52:57;;;;;;;5.30;5.00;;;;;;;;;;4230497;28;20404;-90
2023/02/05 12:55:24;;;;;;;3.90;3.70;;;;;;;;;;4229039;28;20070;-90
2023/02/05 12:57:51;;;;;;;3.67;3.58;;;;;;;;;;4218153;28;20122;-90
2023/02/05 13:03:56;;;;;;;4.32;4.22;;;;;;;;;;4228735;28;20065;-90
2023/02/05 13:06:37;;;;;;;3.95;3.88;;;;;;;;;;4220780;28;20408;-89
2023/02/05 13:12:30;;;;;;;9.82;4.93;;;;;;;;;;4232928;28;20087;-90
2023/02/05 13:14:51;;;;;;;;;;;;;;;;;;4235111;28;20078;-90
2023/02/05 13:17:15;;;;;;;3.85;3.75;;;;;;;;;;4237256;28;19929;-91
2023/02/05 13:19:43;;;;;;;3.00;2.90;;;;;;;;;;4217248;28;20066;-90
2023/02/05 13:31:14;;;;;;;10.30;4.45;;;;;;;;;;4229660;28;20042;-89
2023/02/05 13:33:35;;;;;;;2.67;2.47;;;;;;;;;;4218881;28;20155;-91
2023/02/05 13:36:02;;;;;;;3.65;3.55;;;;;;;;;;4215295;28;20050;-89
2023/02/05 13:38:41;;;;;;;4.78;4.68;;;;;;;;;;4217259;28;20353;-90
2023/02/05 13:44:36;;;;;;;4.10;4.00;;;;;;;;;;4230782;28;20230;-89
2023/02/05 13:57:18;;;;;;;3.35;3.35;;;;;;;;;;4228775;28;20070;-89
2023/02/05 14:07:02;;;;;;;3.08;2.92;;;;;;;;;;4229016;28;20109;-89
2023/02/05 14:10:03;;;;;;;3.92;3.70;;;;;;;;;;4224622;28;20066;-88
2023/02/05 14:13:01;;;;;;;6.05;3.17;;;;;;;;;;4216260;28;20377;-88
2023/02/05 14:19:00;;;;;;;4.25;4.15;;;;;;;;;;4237086;28;20035;-89
2023/02/05 14:24:27;;;;;;;3.67;3.58;;;;;;;;;;4226739;28;20085;-88
2023/02/05 14:30:31;;;;;;;4.75;4.63;;;;;;;;;;4231101;28;20123;-88
2023/02/05 14:33:30;;;;;;;4.53;4.43;;;;;;;;;;4217783;28;20038;-88
2023/02/05 14:39:31;;;;;;;3.25;3.25;;;;;;;;;;4228441;28;20046;-88
2023/02/05 14:48:48;;;;;;;4.88;4.68;;;;;;;;;;4184824;28;20040;-88
2023/02/05 14:57:46;;;;;;;6.85;6.65;;;;;;;;;;4179313;28;20101;-88
2023/02/05 15:03:56;;;;;;;6.40;6.30;;;;;;;;;;4181802;28;20311;-91
2023/02/05 15:06:54;;;;;;;5.20;5.10;;;;;;;;;;4181457;28;20156;-92
2023/02/05 15:13:20;;;;;;;4.70;4.50;;;;;;;;;;4166114;28;20377;-91
2023/02/05 15:23:01;;;;;;;4.15;4.05;;;;;;;;;;4213901;28;20139;-91
2023/02/05 15:29:16;;;;;;;4.70;4.47;;;;;;;;;;4211430;28;20557;-91
2023/02/05 15:39:18;;;;;;;4.88;4.78;;;;;;;;;;4213121;28;20030;-90
2023/02/05 15:41:58;;;;;;;5.18;4.90;;;;;;;;;;4202863;28;20034;-91
2023/02/05 15:44:37;;;;;;;5.88;5.75;;;;;;;;;;4202007;28;20412;-91
2023/02/05 15:47:35;;;;;;;5.75;5.65;;;;;;;;;;4198974;28;20040;-91
2023/02/05 15:56:34;;;;;;;5.50;5.35;;;;;;;;;;4217605;28;20069;-90
2023/02/05 16:02:48;;;;;;;7.50;7.30;;;;;;;;;;4217824;28;20067;-91
2023/02/05 16:05:20;;;;;;;10.02;9.43;;;;;;;;;;4203426;28;20056;-91
2023/02/05 16:08:00;;;;;;;10.07;9.48;;;;;;;;;;4205244;28;20066;-92
2023/02/05 16:11:00;;;;;;;12.05;10.95;;;;;;;;;;4204908;28;20080;-91
2023/02/05 16:13:21;;;;;;;12.10;11.00;;;;;;;;;;4206635;28;20287;-91
2023/02/05 16:15:48;;;;;;;8.82;8.32;;;;;;;;;;4200477;28;20075;-91
2023/02/05 16:18:21;;;;;;;9.25;8.60;;;;;;;;;;4166990;28;20045;-91
2023/02/05 16:20:46;;;;;;;8.40;7.95;;;;;;;;;;4157568;28;20429;-91
2023/02/05 16:23:11;;;;;;;5.90;5.63;;;;;;;;;;4149767;28;20185;-91
2023/02/05 16:25:39;;;;;;;4.82;4.68;;;;;;;;;;4155788;28;20052;-91
2023/02/05 16:28:04;;;;;;;7.68;7.25;;;;;;;;;;4155392;28;20071;-92
2023/02/05 16:30:26;;;;;;;7.03;6.53;;;;;;;;;;4151837;28;20372;-92
2023/02/05 16:32:48;;;;;;;12.30;11.70;;;;;;;;;;4146257;28;20065;-91